Aérodrome :







RETROUVEZ-NOUS SUR...

 
LOGIN :

S'inscrire | Disclaimer

   EN    FR    IT 

 









Légende :    VFR   VFR Marginal   IFR   IFR Intensif   IFR Très Intensif
Visi : 
Plafond : 
>= 8 km
>= 3000ft
5 à 8 km
1000 à 3000 ft
1500m à 5 km
500 à 1000 ft
800 à 1500m
200 à 500 ft
< 800m
< 200 ft
Symboles :   Orages  Brouillard  Fortes neiges  Fortes précipitations  Vent > 20 kt






- Altitude de l'aérodrome : 357 ft
- Code IATA : YSJ


CYSJ - Saint John

DERNIER METAR :
  • 250900Z 21002KT 15SM BCFG SKC 06/05 A3045 RMK SLP314

METARs EXPIRÉS :
  • 250800Z 21002KT 15SM R05/3000VP6000FT/U BCFG SKC 05/05 A3044 RMK SLP313
  • 250700Z 00000KT 15SM BCFG SKC 05/05 A3045 RMK SLP313

TAF TAF CYSJ
Valide du 25 à 06h jusqu'au 25 à 18h UTC


250538Z 2506/2518 20005KT P6SM SKC
PROB40 2506/2512 1/2SM FG VV002
FM251200 20010KT P6SM FEW020 OVC040
TEMPO 2512/2516 OVC020
FM251600 20012KT P6SM -SHRA OVC020
TEMPO 2516/2518 3SM -DZ BR SCT008 OVC015 RMK NXT FCST BY 251200Z
FIR CZQM / Amérique du Nord



MET'MAP, la Météo Aéronautique d'un coup d'oeil ! - Copyright ORBIFLY Décembre 2007 - Disclaimer

ORBIFLY MET'MAP TEAM :

Programmation & Développement : Alexandra Zaïnal
Sur une idée originale de : Baudouin d'Aumeries
Assistance à la programmation : Marc-Olivier Méhu
Soutien technique & logistique : Manuel Goepfert

Contact : metmap@orbifly.com




SOURCES & CREDITS :

   NOAA